Gardner, Louisiana
Current Conditions -  °F | °C
As of 2:53 AM on Saturday 20 Dec 2014 (Local Time) from KAEX Reporting Station
Overcast Overcast  
Wind Chill: 44°   Ceiling: 800
Heat Index: 47°   Visibility: 10mi
Dew Point: 45°   Wind: 6mph
Humidity: 93%   Direction: 30°NNE
Pressure: 30.14"   Gusts: NA
Location:  31.27°N, 92.69°W
Report Text: KAEX 200853Z 03005KT 10SM OVC008 08/07 A3014 RMK AO2 RAE24B42E51 SLP210 P0000 60001 T00830072 58001
Loading
Personal Weather Stations






























Interactive Weather Map New forecast layout! Learn more

10-Day Weather Forecast

Advertisements
Track Severe Weather on mobile